Time;durP1;ratioP1;P1;durP2;ratioP2;P2;SDS_P1;SDS_P2;PMS_P1;PMS_P2;Temp;Humidity;BMP_temperature;BMP_pressure;BME280_temperature;BME280_humidity;BME280_pressure;Samples;Min_cycle;Max_cycle;Signal;HPM_P1;HPM_P2
2022/07/25 00:00:50;;;;;;;10.80;9.90;;;;;;;25.03;57.33;94952.97;5116198;28;20207;-71
2022/07/25 00:03:17;;;;;;;11.10;10.00;;;;;;;25.02;57.22;94946.53;5116814;28;20184;-71
2022/07/25 00:05:43;;;;;;;10.90;9.95;;;;;;;24.98;58.13;94943.03;5117009;28;20188;-71
2022/07/25 00:08:11;;;;;;;11.25;10.25;;;;;;;24.93;58.42;94940.78;5116616;28;20222;-70
2022/07/25 00:10:39;;;;;;;10.95;10.05;;;;;;;24.86;58.67;94947.41;5116258;28;20196;-68
2022/07/25 00:13:06;;;;;;;11.70;10.07;;;;;;;24.85;59.25;94948.66;5116254;28;20203;-69
2022/07/25 00:15:33;;;;;;;11.13;10.13;;;;;;;24.81;58.29;94945.16;5116862;28;20184;-68
2022/07/25 00:18:00;;;;;;;11.27;10.27;;;;;;;24.81;58.15;94942.34;5116109;28;20187;-68
2022/07/25 00:20:27;;;;;;;12.10;10.82;;;;;;;24.81;58.11;94938.72;5115646;28;20203;-68
2022/07/25 00:22:53;;;;;;;10.82;9.85;;;;;;;24.79;57.27;94941.19;5115724;28;20195;-69
2022/07/25 00:25:20;;;;;;;10.48;9.48;;;;;;;24.78;57.51;94942.44;5116275;28;20567;-68
2022/07/25 00:27:48;;;;;;;11.43;10.30;;;;;;;24.76;57.33;94937.25;5116462;28;20221;-68
2022/07/25 00:30:15;;;;;;;11.18;10.25;;;;;;;24.72;57.41;94931.69;5115615;28;20208;-69
2022/07/25 00:32:42;;;;;;;11.02;10.10;;;;;;;24.71;57.93;94938.59;5115722;28;20200;-68
2022/07/25 00:35:09;;;;;;;11.45;10.25;;;;;;;24.68;57.61;94933.06;5115514;28;20199;-68
2022/07/25 00:37:36;;;;;;;10.30;9.40;;;;;;;24.64;57.55;94926.75;5116631;28;20190;-68
2022/07/25 00:40:02;;;;;;;10.63;9.73;;;;;;;24.62;57.11;94921.56;5116400;28;20206;-68
2022/07/25 00:42:30;;;;;;;10.90;10.00;;;;;;;24.61;57.13;94917.13;5116165;28;20529;-69
2022/07/25 00:44:58;;;;;;;10.95;9.85;;;;;;;24.61;56.90;94916.34;5116292;28;20188;-68
2022/07/25 00:47:25;;;;;;;10.68;9.70;;;;;;;24.59;57.22;94916.81;5115900;28;20212;-69
2022/07/25 00:49:52;;;;;;;11.30;10.20;;;;;;;24.56;57.34;94920.53;5115645;28;20211;-68
2022/07/25 00:52:19;;;;;;;11.40;10.20;;;;;;;24.54;57.79;94916.56;5115834;28;20632;-68
2022/07/25 00:54:47;;;;;;;10.07;9.32;;;;;;;24.50;58.49;94920.28;5115092;28;20238;-68
2022/07/25 00:57:13;;;;;;;10.85;9.93;;;;;;;24.47;58.58;94915.56;5116000;28;20180;-68
2022/07/25 00:59:40;;;;;;;10.65;9.75;;;;;;;24.44;58.84;94915.66;5115392;28;20207;-68
2022/07/25 01:02:09;;;;;;;10.27;9.45;;;;;;;24.41;58.52;94913.72;5115905;28;20207;-68
2022/07/25 01:04:35;;;;;;;10.52;9.57;;;;;;;24.38;58.86;94917.41;5115191;28;20191;-68
2022/07/25 01:07:02;;;;;;;10.73;9.82;;;;;;;24.36;59.18;94920.66;5114882;28;20188;-68
2022/07/25 01:09:29;;;;;;;10.75;9.75;;;;;;;24.37;59.02;94913.78;5114976;28;20192;-68
2022/07/25 01:11:56;;;;;;;10.88;9.68;;;;;;;24.33;59.33;94909.47;5115452;28;20192;-68
2022/07/25 01:14:23;;;;;;;10.77;9.90;;;;;;;24.30;59.57;94910.41;5115638;28;20180;-68
2022/07/25 01:16:50;;;;;;;10.93;9.90;;;;;;;24.27;59.41;94914.88;5114851;28;20649;-68
2022/07/25 01:19:18;;;;;;;10.80;9.80;;;;;;;24.25;59.21;94915.31;5115774;28;20187;-69
2022/07/25 01:21:46;;;;;;;10.88;10.02;;;;;;;24.24;59.91;94910.94;5115510;28;20188;-69
2022/07/25 01:24:13;;;;;;;10.63;9.73;;;;;;;24.21;59.70;94908.22;5115001;28;20204;-69
2022/07/25 01:26:40;;;;;;;10.43;9.52;;;;;;;24.21;59.26;94913.84;5114767;28;20192;-69
2022/07/25 01:29:07;;;;;;;11.10;10.27;;;;;;;24.22;59.87;94915.41;5115527;28;20260;-69
2022/07/25 01:31:34;;;;;;;10.90;10.05;;;;;;;24.21;60.03;94911.03;5115071;28;20203;-69
2022/07/25 01:34:00;;;;;;;11.18;10.27;;;;;;;24.11;60.20;94912.09;5115097;28;20200;-69
2022/07/25 01:36:28;;;;;;;10.93;9.80;;;;;;;24.02;60.37;94907.91;5114913;28;20208;-69
2022/07/25 01:38:56;;;;;;;10.48;9.55;;;;;;;23.98;60.28;94915.69;5114661;28;20194;-69
2022/07/25 01:41:23;;;;;;;11.18;10.18;;;;;;;23.96;60.51;94908.91;5115289;28;20180;-69
2022/07/25 01:43:50;;;;;;;10.55;9.75;;;;;;;23.92;60.34;94914.63;5115038;28;20195;-69
2022/07/25 01:46:16;;;;;;;11.25;10.25;;;;;;;23.87;60.89;94918.00;5114913;28;20206;-69
2022/07/25 01:48:43;;;;;;;11.20;10.10;;;;;;;23.87;61.02;94917.22;5115465;28;20199;-69
2022/07/25 01:51:10;;;;;;;11.93;10.77;;;;;;;23.88;60.43;94921.59;5115401;28;20192;-69
2022/07/25 01:53:37;;;;;;;11.90;10.80;;;;;;;23.91;60.73;94926.34;5115459;28;20176;-68
2022/07/25 01:56:07;;;;;;;12.07;10.88;;;;;;;23.91;60.63;94923.53;5114069;28;20234;-69
2022/07/25 01:58:34;;;;;;;11.63;10.70;;;;;;;23.91;60.27;94924.31;5115533;28;20191;-69
2022/07/25 02:01:00;;;;;;;10.70;9.82;;;;;;;23.93;59.89;94923.88;5114387;28;20191;-69
2022/07/25 02:03:30;;;;;;;12.05;10.85;;;;;;;23.90;60.59;94919.94;5114764;28;20203;-69
2022/07/25 02:05:57;;;;;;;13.07;11.70;;;;;;;23.91;60.95;94929.16;5115390;28;20184;-69
2022/07/25 02:08:23;;;;;;;13.45;12.25;;;;;;;23.87;61.14;94926.44;5115327;28;20199;-69
2022/07/25 02:10:50;;;;;;;12.95;11.65;;;;;;;23.85;60.96;94928.09;5115444;28;20176;-69
2022/07/25 02:13:18;;;;;;;11.90;10.82;;;;;;;23.86;61.00;94924.88;5114350;28;20196;-69
2022/07/25 02:15:45;;;;;;;12.10;11.00;;;;;;;23.83;60.79;94916.50;5116790;28;20203;-69
2022/07/25 02:18:12;;;;;;;10.75;9.95;;;;;;;23.80;60.82;94920.22;5119637;28;20183;-69
2022/07/25 02:20:39;;;;;;;11.20;10.10;;;;;;;23.79;60.99;94919.41;5119441;28;20192;-69
2022/07/25 02:23:06;;;;;;;10.93;9.93;;;;;;;23.80;60.76;94920.22;5118368;28;20502;-69
2022/07/25 02:25:33;;;;;;;12.00;10.93;;;;;;;23.80;61.63;94934.28;5119068;28;20210;-68
2022/07/25 02:28:00;;;;;;;11.73;10.77;;;;;;;23.76;61.64;94937.19;5118712;28;20214;-69
2022/07/25 02:30:28;;;;;;;11.90;10.82;;;;;;;23.71;62.14;94943.34;5117919;28;20607;-69
2022/07/25 02:32:55;;;;;;;12.88;11.23;;;;;;;23.68;62.59;94935.81;5118066;28;20202;-69
2022/07/25 02:35:22;;;;;;;12.13;10.93;;;;;;;23.64;62.67;94930.25;5118422;28;20196;-69
2022/07/25 02:37:49;;;;;;;12.98;11.50;;;;;;;23.61;62.82;94924.69;5118863;28;20192;-69
2022/07/25 02:40:16;;;;;;;12.20;11.07;;;;;;;23.56;62.91;94937.25;5118044;28;20196;-68
2022/07/25 02:42:43;;;;;;;12.95;11.15;;;;;;;23.54;62.69;94926.44;5117789;28;20199;-69
2022/07/25 02:45:10;;;;;;;12.30;11.20;;;;;;;23.53;63.17;94921.28;5118676;28;20187;-68
2022/07/25 02:47:39;;;;;;;11.07;10.18;;;;;;;23.48;62.58;94921.78;5117412;28;20207;-68
2022/07/25 02:50:06;;;;;;;11.68;10.75;;;;;;;23.41;62.38;94927.59;5118496;28;20244;-68
2022/07/25 02:52:33;;;;;;;12.05;10.95;;;;;;;23.40;61.73;94924.00;5117275;28;20599;-69
2022/07/25 02:55:00;;;;;;;10.77;9.80;;;;;;;23.43;61.20;94937.19;5118053;28;20247;-68
2022/07/25 02:57:26;;;;;;;11.85;9.60;;;;;;;23.47;61.03;94926.63;5118559;28;20191;-68
2022/07/25 02:59:53;;;;;;;10.70;9.65;;;;;;;23.51;59.68;94935.78;5117863;28;20615;-68
2022/07/25 03:02:20;;;;;;;10.48;9.50;;;;;;;23.54;59.72;94926.44;5118489;28;20192;-68
2022/07/25 03:04:48;;;;;;;11.10;10.00;;;;;;;23.55;59.76;94933.66;5117992;28;20186;-68
2022/07/25 03:07:15;;;;;;;10.93;9.45;;;;;;;23.60;58.50;94928.72;5117267;28;20192;-68
2022/07/25 03:09:42;;;;;;;11.30;10.20;;;;;;;23.61;59.86;94939.56;5117824;28;20234;-69
2022/07/25 03:12:09;;;;;;;11.27;10.30;;;;;;;23.60;60.02;94937.16;5117419;28;20207;-68
2022/07/25 03:14:36;;;;;;;11.15;10.05;;;;;;;23.60;57.98;94940.78;5117822;28;20607;-68
2022/07/25 03:17:02;;;;;;;9.77;8.93;;;;;;;23.60;56.70;94928.72;5117935;28;20176;-68
2022/07/25 03:19:29;;;;;;;10.23;9.20;;;;;;;23.60;56.83;94937.97;5117234;28;20204;-68
2022/07/25 03:21:57;;;;;;;10.27;9.20;;;;;;;23.60;56.76;94935.13;5117584;28;20195;-68
2022/07/25 03:24:24;;;;;;;10.80;9.80;;;;;;;23.62;56.52;94934.72;5117166;28;20211;-68
2022/07/25 03:26:51;;;;;;;10.55;9.40;;;;;;;23.61;56.50;94933.16;5115732;28;20196;-69
2022/07/25 03:29:18;;;;;;;11.23;10.23;;;;;;;23.64;55.97;94946.31;5117997;28;20214;-68
2022/07/25 03:31:44;;;;;;;10.57;9.68;;;;;;;23.70;56.41;94936.94;5118779;28;20204;-70
2022/07/25 03:34:11;;;;;;;9.70;8.80;;;;;;;23.73;56.29;94940.88;5121075;28;20180;-70
2022/07/25 03:36:38;;;;;;;10.30;9.25;;;;;;;23.75;56.14;94932.81;5119541;28;20180;-70
2022/07/25 03:39:06;;;;;;;10.02;9.23;;;;;;;23.77;56.28;94924.69;5118943;28;20197;-71
2022/07/25 03:41:33;;;;;;;10.45;9.40;;;;;;;23.78;55.62;94934.72;5118327;28;20191;-71
2022/07/25 03:44:00;;;;;;;10.05;9.15;;;;;;;23.77;55.36;94936.75;5119053;28;20211;-70
2022/07/25 03:46:27;;;;;;;11.18;10.23;;;;;;;23.78;55.24;94935.53;5120043;28;20195;-70
2022/07/25 03:48:54;;;;;;;9.73;8.75;;;;;;;23.81;55.43;94935.88;5118192;28;20231;-70
2022/07/25 03:51:21;;;;;;;10.27;9.30;;;;;;;23.83;55.27;94933.41;5118731;28;20192;-70
2022/07/25 03:54:03;;;;;;;9.75;8.88;;;;;;;23.84;55.33;94944.22;5117548;28;20200;-71
2022/07/25 03:56:32;;;;;;;9.23;8.38;;;;;;;23.82;55.84;94940.25;5077551;28;20189;-70
2022/07/25 03:58:59;;;;;;;10.38;9.48;;;;;;;23.77;55.44;94941.59;5077444;28;20197;-70
2022/07/25 04:01:26;;;;;;;11.02;9.90;;;;;;;23.72;55.30;94939.31;5076745;28;20189;-69
2022/07/25 04:03:53;;;;;;;10.63;9.65;;;;;;;23.72;55.49;94942.91;5077959;28;20189;-71
2022/07/25 04:06:22;;;;;;;10.48;9.57;;;;;;;23.73;55.49;94946.53;5080293;28;20193;-69
2022/07/25 04:08:49;;;;;;;9.52;8.73;;;;;;;23.73;55.50;94947.31;5079877;28;20251;-70
2022/07/25 04:11:15;;;;;;;10.68;9.38;;;;;;;23.70;55.66;94947.41;5076688;28;20181;-69
2022/07/25 04:13:44;;;;;;;10.65;9.75;;;;;;;23.70;56.00;94944.59;5076529;28;20600;-69
2022/07/25 04:16:11;;;;;;;9.63;8.77;;;;;;;23.73;55.35;94947.31;5075436;28;20201;-69
2022/07/25 04:18:38;;;;;;;10.13;9.13;;;;;;;23.78;54.94;94940.34;5075945;28;20185;-69
2022/07/25 04:21:05;;;;;;;10.32;9.32;;;;;;;23.80;54.89;94939.91;5075750;28;20533;-69
2022/07/25 04:23:33;;;;;;;9.77;8.85;;;;;;;23.81;54.72;94941.50;5076099;28;20558;-69
2022/07/25 04:25:59;;;;;;;9.73;8.95;;;;;;;23.78;54.26;94937.53;5077876;28;20185;-69
2022/07/25 04:28:26;;;;;;;8.90;8.20;;;;;;;23.74;54.53;94934.03;5078364;28;20201;-68
2022/07/25 04:30:55;;;;;;;9.45;8.60;;;;;;;23.69;54.22;94935.34;5077827;28;20224;-68
2022/07/25 04:33:23;;;;;;;9.77;8.95;;;;;;;23.67;54.37;94937.03;5079798;28;20222;-68
2022/07/25 04:35:50;;;;;;;8.88;8.15;;;;;;;23.64;53.77;94937.88;5079370;28;20169;-68
2022/07/25 04:38:17;;;;;;;9.77;8.98;;;;;;;23.63;54.16;94934.25;5078339;28;20197;-68
2022/07/25 04:40:45;;;;;;;9.45;8.60;;;;;;;23.66;54.50;94938.22;5079748;28;20204;-69
2022/07/25 04:43:11;;;;;;;9.23;8.32;;;;;;;23.64;54.27;94943.50;5081061;28;20203;-68
2022/07/25 04:45:38;;;;;;;9.02;8.00;;;;;;;23.66;53.93;94938.22;5077769;28;20196;-68
2022/07/25 04:48:07;;;;;;;8.55;7.88;;;;;;;23.66;53.71;94936.19;5078116;28;20181;-69
2022/07/25 04:50:34;;;;;;;8.07;7.38;;;;;;;23.67;53.67;94935.00;5081415;28;20189;-68
2022/07/25 04:53:00;;;;;;;9.00;8.20;;;;;;;23.70;53.95;94939.75;5078157;28;20200;-69
2022/07/25 04:55:27;;;;;;;9.52;8.27;;;;;;;23.73;54.30;94938.06;5106332;28;20235;-69
2022/07/25 04:57:54;;;;;;;9.02;8.30;;;;;;;23.73;53.46;94946.53;5118470;28;20203;-69
2022/07/25 05:00:22;;;;;;;9.05;8.35;;;;;;;23.74;53.79;94940.44;5118121;28;20194;-68
2022/07/25 05:02:50;;;;;;;9.05;8.30;;;;;;;23.77;53.98;94944.41;5117728;28;20195;-68
2022/07/25 05:05:19;;;;;;;9.75;8.75;;;;;;;23.76;54.23;94946.44;5118435;28;20310;-67
2022/07/25 05:07:45;;;;;;;8.30;7.55;;;;;;;23.77;53.30;94944.41;5117225;28;20187;-68
2022/07/25 05:10:12;;;;;;;9.27;8.38;;;;;;;23.79;53.09;94941.94;5117688;28;20211;-68
2022/07/25 05:12:40;;;;;;;9.00;7.95;;;;;;;23.81;53.21;94941.50;5116975;28;20192;-68
2022/07/25 05:15:08;;;;;;;9.43;8.52;;;;;;;23.82;53.24;94955.16;5117201;28;20184;-68
2022/07/25 05:17:34;;;;;;;8.32;7.70;;;;;;;23.82;53.30;94945.88;5118094;28;20195;-68
2022/07/25 05:20:01;;;;;;;8.48;7.80;;;;;;;23.85;53.67;94936.56;5119805;28;20176;-68
2022/07/25 05:22:30;;;;;;;8.50;7.82;;;;;;;23.88;53.70;94942.09;5118305;28;20208;-69
2022/07/25 05:24:56;;;;;;;9.02;8.23;;;;;;;23.92;54.06;94951.25;5116897;28;20199;-70
2022/07/25 05:27:23;;;;;;;8.60;7.82;;;;;;;23.95;54.10;94950.34;5117087;28;20214;-69
2022/07/25 05:29:50;;;;;;;8.63;7.82;;;;;;;23.98;53.51;94949.47;5117695;28;20211;-69
2022/07/25 05:32:17;;;;;;;8.85;8.05;;;;;;;24.05;53.80;94947.72;5117422;28;20604;-69
2022/07/25 05:34:44;;;;;;;8.93;8.13;;;;;;;24.11;53.44;94945.91;5117385;28;20199;-69
2022/07/25 05:37:11;;;;;;;7.80;7.20;;;;;;;24.19;53.90;94947.31;5119451;28;20196;-68
2022/07/25 05:39:39;;;;;;;8.32;7.55;;;;;;;24.17;53.36;94946.97;5119220;28;20180;-69
2022/07/25 05:42:06;;;;;;;8.45;7.75;;;;;;;24.17;53.11;94947.75;5116938;28;20205;-68
2022/07/25 05:44:33;;;;;;;9.13;8.38;;;;;;;24.25;52.73;94949.13;5117326;28;20196;-68
2022/07/25 05:47:00;;;;;;;8.00;7.18;;;;;;;24.25;52.80;94945.53;5116686;28;20180;-68
2022/07/25 05:49:27;;;;;;;8.48;7.78;;;;;;;24.27;53.42;94943.84;5118269;28;20203;-68
2022/07/25 05:51:54;;;;;;;10.13;9.07;;;;;;;24.25;53.16;94946.31;5121725;28;20199;-68
2022/07/25 05:54:21;;;;;;;8.30;7.60;;;;;;;24.23;52.32;94936.75;5122503;28;20239;-69
2022/07/25 05:56:50;;;;;;;8.05;7.45;;;;;;;24.25;52.61;94946.31;5121699;28;20201;-68
2022/07/25 05:59:17;;;;;;;8.27;7.68;;;;;;;24.26;52.55;94942.28;5119404;28;20206;-69
2022/07/25 06:01:44;;;;;;;8.45;7.85;;;;;;;24.27;53.05;94932.59;5120298;28;20230;-69
2022/07/25 06:04:11;;;;;;;8.95;8.15;;;;;;;24.26;52.38;94938.69;5120673;28;20612;-69
2022/07/25 06:06:38;;;;;;;8.88;8.18;;;;;;;24.26;52.90;94933.81;5120100;28;20195;-71
2022/07/25 06:09:05;;;;;;;8.50;7.70;;;;;;;24.31;51.98;94940.16;5121681;28;20220;-69
2022/07/25 06:11:32;;;;;;;8.05;7.45;;;;;;;24.37;52.52;94938.38;5121699;28;20261;-68
2022/07/25 06:14:00;;;;;;;8.57;7.70;;;;;;;24.41;52.70;94937.06;5124067;28;20222;-68
2022/07/25 06:16:27;;;;;;;8.80;7.90;;;;;;;24.45;52.61;94940.56;5123431;28;20187;-69
2022/07/25 06:18:53;;;;;;;8.48;7.68;;;;;;;24.47;52.67;94942.91;5119579;28;20202;-69
2022/07/25 06:21:20;;;;;;;8.10;7.38;;;;;;;24.46;52.28;94933.69;5121163;28;20192;-68
2022/07/25 06:23:47;;;;;;;8.63;7.82;;;;;;;24.48;52.50;94939.69;5120187;28;20286;-68
2022/07/25 06:26:14;;;;;;;9.07;8.13;;;;;;;24.48;52.66;94942.50;5119721;28;20195;-69
2022/07/25 06:28:41;;;;;;;8.52;7.72;;;;;;;24.49;52.00;94938.44;5118451;28;20196;-69
2022/07/25 06:31:09;;;;;;;8.70;8.00;;;;;;;24.53;51.77;94938.31;5119846;28;20195;-69
2022/07/25 06:33:36;;;;;;;8.98;8.25;;;;;;;24.59;52.04;94933.72;5119883;28;20191;-68
2022/07/25 06:36:04;;;;;;;8.93;8.18;;;;;;;24.58;51.62;94920.84;5119962;27;20192;-68
2022/07/25 06:38:32;;;;;;;7.88;7.22;;;;;;;24.67;52.13;94937.91;5118944;28;20595;-68
2022/07/25 06:40:59;;;;;;;9.73;8.73;;;;;;;24.75;51.56;94930.03;5119176;28;20195;-68
2022/07/25 06:43:25;;;;;;;9.65;8.75;;;;;;;24.77;51.53;94935.22;5118270;28;20204;-69
2022/07/25 06:45:52;;;;;;;9.25;8.50;;;;;;;24.79;51.63;94933.53;5120672;28;20203;-69
2022/07/25 06:48:23;;;;;;;9.48;8.70;;;;;;;24.86;51.40;94935.34;5119765;28;20521;-68
2022/07/25 06:50:50;;;;;;;9.52;8.80;;;;;;;24.90;51.48;94930.38;5119093;28;20216;-69
2022/07/25 06:53:17;;;;;;;9.10;8.15;;;;;;;24.90;51.37;94928.34;5118757;28;20196;-69
2022/07/25 06:55:44;;;;;;;8.77;7.82;;;;;;;25.01;51.83;94924.41;5118892;28;20238;-68
2022/07/25 06:58:11;;;;;;;8.60;7.82;;;;;;;25.03;50.98;94917.09;5120789;28;20199;-68
2022/07/25 07:00:38;;;;;;;8.73;7.97;;;;;;;25.06;50.20;94910.53;5120374;28;20195;-68
2022/07/25 07:03:05;;;;;;;8.55;7.85;;;;;;;25.05;50.37;94917.41;5120801;28;20184;-68
2022/07/25 07:05:35;;;;;;;9.38;8.57;;;;;;;25.04;50.19;94907.38;5121484;28;20282;-68
2022/07/25 07:08:02;;;;;;;9.20;8.40;;;;;;;25.05;49.70;94914.59;5122851;27;20222;-68
2022/07/25 07:10:29;;;;;;;8.35;7.65;;;;;;;25.15;50.80;94915.53;5120915;28;20250;-68
2022/07/25 07:13:06;;;;;;;8.85;8.25;;;;;;;25.24;49.98;94909.19;5118728;28;20191;-68
2022/07/25 07:15:33;;;;;;;8.18;7.57;;;;;;;25.26;50.31;94915.19;5119082;28;20188;-68
2022/07/25 07:18:00;;;;;;;9.10;8.35;;;;;;;25.28;50.19;94913.50;5118338;28;20188;-68
2022/07/25 07:20:27;;;;;;;9.82;8.98;;;;;;;25.29;50.03;94911.47;5119517;28;20192;-68
2022/07/25 07:23:14;;;;;;;8.93;8.23;;;;;;;25.34;49.97;94914.50;5123869;28;20206;-68
2022/07/25 07:25:41;;;;;;;9.63;8.85;;;;;;;25.39;49.87;94918.78;5121117;28;20180;-68
2022/07/25 07:28:08;;;;;;;8.60;7.88;;;;;;;25.38;50.13;94912.38;5118207;28;20536;-69
2022/07/25 07:30:35;;;;;;;8.98;8.27;;;;;;;25.40;48.91;94921.16;5117540;28;20213;-69
2022/07/25 07:33:02;;;;;;;9.00;8.20;;;;;;;25.39;48.25;94907.50;5106463;28;20211;-68
2022/07/25 07:35:29;;;;;;;9.25;8.38;;;;;;;25.36;48.26;94911.22;5122660;28;20184;-68
2022/07/25 07:37:56;;;;;;;8.95;8.15;;;;;;;25.34;48.09;94906.03;5119127;28;20302;-69
2022/07/25 07:40:25;;;;;;;8.70;8.00;;;;;;;25.32;47.88;94902.09;5120008;28;20176;-69
2022/07/25 07:42:52;;;;;;;9.15;8.32;;;;;;;25.36;48.42;94900.72;5117941;28;20257;-69
2022/07/25 07:45:23;;;;;;;9.45;8.55;;;;;;;25.42;47.86;94906.59;5118323;28;20215;-69
2022/07/25 07:47:52;;;;;;;8.98;8.25;;;;;;;25.49;49.15;94903.53;5119762;28;20244;-69
2022/07/25 07:50:21;;;;;;;9.50;8.77;;;;;;;25.53;48.10;94909.03;5121940;28;20216;-69
2022/07/25 07:52:48;;;;;;;9.50;8.60;;;;;;;25.55;47.35;94904.53;5120029;28;20233;-69
2022/07/25 07:58:01;;;;;;;9.23;8.38;;;;;;;25.52;47.15;94901.81;5118429;28;20213;-68
2022/07/25 08:00:30;;;;;;;9.27;8.35;;;;;;;25.56;47.62;94908.13;5118528;28;20621;-68
2022/07/25 08:02:59;;;;;;;9.23;8.45;;;;;;;25.66;48.23;94901.34;5119682;28;20187;-68
2022/07/25 08:05:29;;;;;;;9.38;8.52;;;;;;;25.75;47.75;94904.28;5120592;28;20547;-68
2022/07/25 08:07:56;;;;;;;8.88;8.07;;;;;;;25.85;48.43;94900.28;5124286;28;20209;-68
2022/07/25 08:10:25;;;;;;;9.75;9.02;;;;;;;25.87;46.40;94903.47;5124224;28;20234;-70
2022/07/25 08:12:52;;;;;;;8.63;7.82;;;;;;;25.84;46.37;94897.94;5124340;28;20580;-70
2022/07/25 08:15:22;;;;;;;9.60;8.85;;;;;;;25.82;46.35;94903.28;5123088;28;20207;-71
2022/07/25 08:17:50;;;;;;;9.40;8.60;;;;;;;25.84;46.39;94904.38;5121770;28;20195;-70
2022/07/25 08:20:17;;;;;;;9.43;8.65;;;;;;;25.85;46.50;94896.69;5118040;28;20282;-71
2022/07/25 08:22:46;;;;;;;9.55;8.80;;;;;;;25.85;46.07;94897.47;5119516;28;20200;-70
2022/07/25 08:25:14;;;;;;;9.45;8.65;;;;;;;25.92;46.18;94896.44;5118359;28;20210;-70
2022/07/25 08:27:44;;;;;;;9.93;9.13;;;;;;;25.96;46.15;94894.28;5122313;28;20599;-71
2022/07/25 08:30:12;;;;;;;9.23;8.43;;;;;;;26.00;45.81;94897.78;5118399;28;20291;-70
2022/07/25 08:32:48;;;;;;;9.43;8.50;;;;;;;25.99;45.57;94893.38;5119197;28;20211;-70
2022/07/25 08:35:16;;;;;;;9.88;9.10;;;;;;;26.02;45.50;94903.75;5119790;28;20522;-70
2022/07/25 08:37:42;;;;;;;9.43;8.70;;;;;;;26.07;45.31;94891.06;5121881;28;20187;-70
2022/07/25 08:40:11;;;;;;;8.85;8.15;;;;;;;26.14;45.16;94908.59;5119074;28;20199;-70
2022/07/25 08:42:38;;;;;;;9.15;8.38;;;;;;;26.20;46.00;94900.28;5118636;28;20214;-70
2022/07/25 08:45:07;;;;;;;8.80;8.10;;;;;;;26.27;45.50;94891.56;5115426;28;20196;-70
2022/07/25 08:47:35;;;;;;;8.15;7.55;;;;;;;26.38;44.62;94889.13;5115432;28;20600;-70
2022/07/25 08:50:05;;;;;;;8.70;7.90;;;;;;;26.45;43.57;94893.72;5116144;28;20544;-70
2022/07/25 08:52:34;;;;;;;8.68;7.97;;;;;;;26.50;43.84;94893.16;5116428;28;20188;-70
2022/07/25 08:55:01;;;;;;;8.63;7.93;;;;;;;26.56;44.72;94890.53;5115599;28;20613;-70
2022/07/25 08:57:28;;;;;;;8.65;7.80;;;;;;;26.67;42.22;94884.47;5115516;28;20203;-70
2022/07/25 08:59:57;;;;;;;8.60;7.90;;;;;;;26.71;43.53;94874.56;5117420;28;20211;-70
2022/07/25 09:02:24;;;;;;;8.60;7.80;;;;;;;26.80;43.51;94885.16;5116737;28;20192;-70
2022/07/25 09:04:51;;;;;;;8.68;7.97;;;;;;;26.92;43.73;94884.28;5116893;28;20203;-70
2022/07/25 09:07:29;;;;;;;9.32;8.52;;;;;;;27.05;42.34;94887.00;5116293;28;20191;-70
2022/07/25 09:09:56;;;;;;;8.82;8.02;;;;;;;27.15;41.85;94885.03;5115532;28;20212;-70
2022/07/25 09:12:26;;;;;;;8.88;8.13;;;;;;;27.20;41.87;94879.56;5115282;28;20583;-69
2022/07/25 09:14:52;;;;;;;8.90;8.10;;;;;;;27.24;42.77;94868.88;5116080;28;20198;-70
2022/07/25 09:17:19;;;;;;;9.88;8.60;;;;;;;27.39;44.30;94865.47;5116809;28;20191;-70
2022/07/25 09:19:52;;;;;;;8.85;8.07;;;;;;;27.46;42.53;94863.13;5116615;28;20191;-70
2022/07/25 09:22:21;;;;;;;8.57;7.68;;;;;;;27.54;42.03;94870.03;5115525;28;20534;-70
2022/07/25 09:24:48;;;;;;;8.30;7.60;;;;;;;27.60;42.47;94864.56;5114863;28;20203;-70
2022/07/25 09:27:16;;;;;;;9.00;8.25;;;;;;;27.70;41.96;94865.34;5116545;28;20191;-69
2022/07/25 09:29:43;;;;;;;8.77;7.95;;;;;;;27.76;41.85;94857.84;5116433;28;20211;-70
2022/07/25 09:32:18;;;;;;;8.68;7.78;;;;;;;27.77;41.96;94848.84;5116355;28;20253;-69
2022/07/25 09:34:47;;;;;;;8.52;7.72;;;;;;;27.80;41.71;94847.13;5115425;28;20191;-70
2022/07/25 09:37:15;;;;;;;8.63;7.85;;;;;;;27.88;40.67;94851.22;5115103;28;20204;-69
2022/07/25 09:39:44;;;;;;;8.65;7.95;;;;;;;27.92;41.56;94856.75;5116568;28;20194;-69
2022/07/25 09:42:17;;;;;;;8.50;7.90;;;;;;;27.89;41.38;94852.81;5116329;28;20184;-70
2022/07/25 09:44:44;;;;;;;8.30;7.70;;;;;;;27.97;42.06;94851.25;5115722;28;20204;-70
2022/07/25 09:47:12;;;;;;;8.88;8.15;;;;;;;28.03;41.48;94857.88;5116570;28;20190;-70
2022/07/25 09:49:43;;;;;;;8.98;8.18;;;;;;;28.13;41.23;94852.19;5115269;28;20603;-70
2022/07/25 09:52:10;;;;;;;8.52;7.88;;;;;;;28.21;41.02;94856.25;5116042;28;20199;-70
2022/07/25 09:54:38;;;;;;;9.07;8.38;;;;;;;28.17;40.01;94847.13;5115287;28;20234;-70
2022/07/25 09:57:06;;;;;;;8.55;7.85;;;;;;;27.99;39.77;94843.03;5116938;28;20176;-70
2022/07/25 09:59:34;;;;;;;8.30;7.60;;;;;;;27.96;40.60;94844.00;5117460;28;20203;-69
2022/07/25 10:02:06;;;;;;;8.32;7.65;;;;;;;27.94;41.01;94851.41;5115347;28;20191;-69
2022/07/25 10:04:44;;;;;;;9.02;8.32;;;;;;;27.84;40.58;94842.88;5116985;28;20203;-69
2022/07/25 10:07:13;;;;;;;8.35;7.72;;;;;;;27.84;40.66;94845.72;5116100;28;20199;-69
2022/07/25 10:09:44;;;;;;;8.20;7.50;;;;;;;27.82;40.84;94847.47;5115702;28;20298;-69
2022/07/25 10:12:19;;;;;;;8.82;8.02;;;;;;;27.76;40.98;94835.94;5116460;28;20199;-69
2022/07/25 10:15:07;;;;;;;8.07;7.47;;;;;;;27.77;39.35;94831.84;5116821;28;20195;-69
2022/07/25 10:17:35;;;;;;;8.70;7.93;;;;;;;27.88;39.84;94831.38;5115021;28;20264;-68
2022/07/25 10:20:02;;;;;;;7.60;7.00;;;;;;;27.98;39.59;94832.97;5115367;28;20190;-69
2022/07/25 10:22:37;;;;;;;7.38;6.88;;;;;;;28.11;38.81;94834.88;5113971;28;20214;-69
2022/07/25 10:25:11;;;;;;;7.70;7.00;;;;;;;28.18;38.98;94826.81;5117402;28;20256;-70
2022/07/25 10:27:43;;;;;;;7.65;7.05;;;;;;;28.14;39.15;94826.16;5116017;28;20191;-70
2022/07/25 10:30:18;;;;;;;7.65;6.95;;;;;;;28.06;39.46;94833.44;5115494;28;20180;-70
2022/07/25 10:32:49;;;;;;;8.10;7.40;;;;;;;27.99;38.89;94828.88;5114361;28;20199;-70
2022/07/25 10:35:17;;;;;;;8.20;7.50;;;;;;;27.91;38.67;94815.50;5114505;28;20200;-70
2022/07/25 10:37:46;;;;;;;7.90;7.28;;;;;;;27.87;39.24;94821.31;5118899;28;20188;-68
2022/07/25 10:40:25;;;;;;;7.07;6.40;;;;;;;27.81;39.18;94821.16;5119959;28;20191;-68
2022/07/25 10:43:01;;;;;;;8.32;7.53;;;;;;;27.91;39.30;94818.31;5118191;28;20199;-68
2022/07/25 10:45:37;;;;;;;7.75;7.05;;;;;;;28.13;39.01;94818.16;5118944;28;20200;-68
2022/07/25 10:48:08;;;;;;;7.97;7.28;;;;;;;28.35;39.15;94815.91;5119529;28;20203;-68
2022/07/25 10:50:34;;;;;;;7.57;7.05;;;;;;;28.46;38.25;94813.41;5121993;28;20224;-69
2022/07/25 10:53:06;;;;;;;7.60;6.90;;;;;;;28.50;38.02;94810.41;5120624;28;20188;-68
2022/07/25 10:55:35;;;;;;;7.95;7.25;;;;;;;28.62;37.43;94808.66;5123375;28;20224;-69
2022/07/25 10:58:05;;;;;;;8.13;7.53;;;;;;;28.88;37.70;94809.03;5118736;28;20207;-69
2022/07/25 11:00:32;;;;;;;8.07;7.47;;;;;;;29.11;37.04;94802.63;5118493;28;20249;-69
2022/07/25 11:03:00;;;;;;;7.45;6.85;;;;;;;29.26;36.13;94806.31;5118840;28;20203;-69
2022/07/25 11:05:28;;;;;;;7.63;6.93;;;;;;;29.18;36.13;94807.94;5119491;28;20196;-69
2022/07/25 11:07:56;;;;;;;7.45;6.85;;;;;;;29.11;35.32;94799.78;5119686;28;20592;-69
2022/07/25 11:10:27;;;;;;;7.28;6.68;;;;;;;29.11;36.28;94802.63;5120865;28;20199;-69
2022/07/25 11:15:35;;;;;;;6.93;6.40;;;;;;;29.32;35.05;94792.25;5118277;28;20241;-68
2022/07/25 11:18:02;;;;;;;7.68;6.97;;;;;;;29.28;34.87;94783.13;5121603;28;20203;-69
2022/07/25 11:20:29;;;;;;;7.05;6.35;;;;;;;29.37;35.54;94782.28;5122711;28;20199;-70
2022/07/25 11:22:56;;;;;;;7.65;7.05;;;;;;;29.39;35.32;94780.53;5123625;28;20195;-69
2022/07/25 11:25:23;;;;;;;7.47;6.70;;;;;;;29.29;35.08;94767.66;5118517;28;20266;-68
2022/07/25 11:27:56;;;;;;;7.82;7.15;;;;;;;29.21;35.66;94781.44;5118052;28;20642;-67
2022/07/25 11:30:23;;;;;;;7.25;6.70;;;;;;;29.38;34.70;94778.19;5117190;28;20200;-68
2022/07/25 11:32:53;;;;;;;7.40;6.80;;;;;;;29.35;34.14;94779.94;5100736;28;20225;-68
2022/07/25 11:35:22;;;;;;;7.00;6.45;;;;;;;29.24;34.68;94779.69;5117254;28;20295;-68
2022/07/25 11:37:50;;;;;;;7.35;6.55;;;;;;;29.29;33.99;94767.66;5117083;28;20199;-69